Time,TemperatureF,DewpointF,PressureIn,WindDirection,WindDirectionDegrees,WindSpeedMPH,WindSpeedGustMPH,Humidity,HourlyPrecipIn,Conditions,Clouds,dailyrainin,SoftwareType,DateUTC
2013-03-15 00:51:00,52.9,51.5,30.05,SE,139,2.0,3.0,95,0.00,NA,NA,-99.99,VWS Version 10.39,2013-03-15 07:51:00,
2013-03-15 01:46:00,52.6,51.5,30.05,SW,235,1.0,1.0,96,0.00,NA,NA,-99.99,VWS Version 10.39,2013-03-15 08:46:00,
2013-03-15 01:51:00,52.5,51.1,30.05,West,278,1.0,1.0,95,0.00,NA,NA,-99.99,VWS Version 10.39,2013-03-15 08:51:00,
2013-03-15 02:11:00,52.4,51.3,30.05,North,360,0.0,0.0,96,0.00,NA,NA,-99.99,VWS Version 10.39,2013-03-15 09:11:00,
2013-03-15 02:16:00,52.5,51.4,30.05,ENE,58,2.0,2.0,96,0.00,NA,NA,-99.99,VWS Version 10.39,2013-03-15 09:16:00,
2013-03-15 02:21:00,52.4,51.3,30.04,NE,52,0.0,0.0,96,0.00,NA,NA,-99.99,VWS Version 10.39,2013-03-15 09:21:00,
2013-03-15 02:26:00,52.5,51.4,30.04,ENE,71,0.0,1.0,96,0.00,NA,NA,-99.99,VWS Version 10.39,2013-03-15 09:26:00,
2013-03-15 04:06:00,52.0,50.9,30.02,SSE,153,2.0,3.0,96,0.00,NA,NA,-99.99,VWS Version 10.39,2013-03-15 11:06:00,
2013-03-15 04:11:00,51.9,50.8,30.01,ESE,114,3.0,3.0,96,0.00,NA,NA,-99.99,VWS Version 10.39,2013-03-15 11:11:00,
2013-03-15 04:16:00,51.8,50.7,30.01,SSE,147,2.0,2.0,96,0.00,NA,NA,-99.99,VWS Version 10.39,2013-03-15 11:16:00,
2013-03-15 04:21:00,51.8,50.7,30.01,ESE,109,2.0,3.0,96,0.00,NA,NA,-99.99,VWS Version 10.39,2013-03-15 11:21:00,
2013-03-15 04:26:00,51.8,50.7,30.01,ESE,110,3.0,3.0,96,0.00,NA,NA,-99.99,VWS Version 10.39,2013-03-15 11:26:00,
2013-03-15 04:31:00,51.7,50.6,30.01,ESE,109,2.0,2.0,96,0.00,NA,NA,-99.99,VWS Version 10.39,2013-03-15 11:31:00,
2013-03-15 04:36:00,51.7,50.6,30.01,ESE,105,2.0,2.0,96,0.00,NA,NA,-99.99,VWS Version 10.39,2013-03-15 11:36:00,
2013-03-15 04:41:00,51.5,50.4,30.01,SE,127,3.0,3.0,96,0.00,NA,NA,-99.99,VWS Version 10.39,2013-03-15 11:41:00,
2013-03-15 04:46:00,51.5,50.4,30.01,SE,140,0.0,1.0,96,0.00,NA,NA,-99.99,VWS Version 10.39,2013-03-15 11:46:00,
2013-03-15 04:51:00,51.4,50.3,30.01,East,80,1.0,1.0,96,0.00,NA,NA,-99.99,VWS Version 10.39,2013-03-15 11:51:00,
2013-03-15 04:56:00,51.2,50.1,30.02,NE,49,1.0,2.0,96,0.00,NA,NA,-99.99,VWS Version 10.39,2013-03-15 11:56:00,
2013-03-15 05:11:00,51.1,50.0,30.02,ENE,67,0.0,0.0,96,0.00,NA,NA,-99.99,VWS Version 10.39,2013-03-15 12:11:00,
2013-03-15 05:21:00,50.4,49.3,30.02,NE,34,1.0,2.0,96,0.00,NA,NA,-99.99,VWS Version 10.39,2013-03-15 12:21:00,
2013-03-15 05:26:00,50.2,49.1,30.02,NE,34,0.0,0.0,96,0.00,NA,NA,-99.99,VWS Version 10.39,2013-03-15 12:26:00,
2013-03-15 05:31:00,50.3,49.2,30.02,NE,34,0.0,1.0,96,0.00,NA,NA,-99.99,VWS Version 10.39,2013-03-15 12:31:00,
2013-03-15 05:41:00,50.9,49.8,30.02,SSE,157,1.0,1.0,96,0.00,NA,NA,-99.99,VWS Version 10.39,2013-03-15 12:41:00,
2013-03-15 05:46:00,51.0,49.9,30.02,SE,142,3.0,3.0,96,0.00,NA,NA,-99.99,VWS Version 10.39,2013-03-15 12:46:00,
2013-03-15 05:51:00,51.0,49.9,30.02,SE,144,1.0,2.0,96,0.00,NA,NA,-99.99,VWS Version 10.39,2013-03-15 12:51:00,
2013-03-15 05:56:00,50.8,49.7,30.02,ESE,121,0.0,3.0,96,0.00,NA,NA,-99.99,VWS Version 10.39,2013-03-15 12:56:00,
2013-03-15 06:01:00,50.6,49.5,30.01,SE,126,1.0,3.0,96,0.00,NA,NA,-99.99,VWS Version 10.39,2013-03-15 13:01:00,
2013-03-15 06:06:00,50.6,49.5,30.02,SE,126,0.0,2.0,96,0.00,NA,NA,-99.99,VWS Version 10.39,2013-03-15 13:06:00,
2013-03-15 06:11:00,50.7,49.6,30.02,SE,126,0.0,0.0,96,0.00,NA,NA,-99.99,VWS Version 10.39,2013-03-15 13:11:00,
2013-03-15 06:16:00,50.8,49.7,30.02,SE,126,0.0,0.0,96,0.00,NA,NA,-99.99,VWS Version 10.39,2013-03-15 13:16:00,
2013-03-15 06:21:00,50.9,49.8,30.02,SE,126,0.0,0.0,96,0.00,NA,NA,-99.99,VWS Version 10.39,2013-03-15 13:21:00,
2013-03-15 06:31:00,51.0,49.9,30.02,SE,131,1.0,1.0,96,0.00,NA,NA,-99.99,VWS Version 10.39,2013-03-15 13:31:00,
2013-03-15 06:36:00,51.0,49.9,30.02,SE,131,0.0,0.0,96,0.00,NA,NA,-99.99,VWS Version 10.39,2013-03-15 13:36:00,
2013-03-15 06:41:00,51.1,50.0,30.02,NE,54,1.0,2.0,96,0.00,NA,NA,-99.99,VWS Version 10.39,2013-03-15 13:41:00,
2013-03-15 06:46:00,51.0,49.9,30.02,NE,52,0.0,1.0,96,0.00,NA,NA,-99.99,VWS Version 10.39,2013-03-15 13:46:00,
2013-03-15 06:51:00,50.9,49.8,30.02,NE,42,1.0,1.0,96,0.00,NA,NA,-99.99,VWS Version 10.39,2013-03-15 13:51:00,
2013-03-15 06:56:00,50.8,49.7,30.02,NE,42,1.0,1.0,96,0.00,NA,NA,-99.99,VWS Version 10.39,2013-03-15 13:56:00,
2013-03-15 07:06:00,50.6,49.5,30.03,NE,42,0.0,0.0,96,0.00,NA,NA,-99.99,VWS Version 10.39,2013-03-15 14:06:00,
2013-03-15 07:16:00,50.5,49.4,30.03,East,80,1.0,1.0,96,0.00,NA,NA,-99.99,VWS Version 10.39,2013-03-15 14:16:00,
2013-03-15 07:21:00,50.5,49.4,30.02,East,79,1.0,1.0,96,0.00,NA,NA,-99.99,VWS Version 10.39,2013-03-15 14:21:00,
2013-03-15 07:26:00,50.5,49.4,30.03,East,88,0.0,1.0,96,0.00,NA,NA,-99.99,VWS Version 10.39,2013-03-15 14:26:00,
2013-03-15 07:36:00,50.6,49.8,30.02,ENE,62,3.0,3.0,97,0.00,NA,NA,-99.99,VWS Version 10.39,2013-03-15 14:36:00,
2013-03-15 07:41:00,50.6,49.8,30.02,ENE,78,1.0,1.0,97,0.00,NA,NA,-99.99,VWS Version 10.39,2013-03-15 14:41:00,
2013-03-15 07:51:00,50.3,49.2,30.03,ENE,71,0.0,0.0,96,0.00,NA,NA,-99.99,VWS Version 10.39,2013-03-15 14:51:00,
2013-03-15 07:56:00,50.2,49.1,30.03,NE,45,1.0,3.0,96,0.00,NA,NA,-99.99,VWS Version 10.39,2013-03-15 14:56:00,
2013-03-15 08:01:00,50.1,49.0,30.03,NE,45,1.0,1.0,96,0.00,NA,NA,-99.99,VWS Version 10.39,2013-03-15 15:01:00,
2013-03-15 08:06:00,49.9,48.8,30.03,ENE,66,0.0,1.0,96,0.00,NA,NA,-99.99,VWS Version 10.39,2013-03-15 15:06:00,
2013-03-15 08:11:00,49.9,48.8,30.03,ENE,78,1.0,1.0,96,0.00,NA,NA,-99.99,VWS Version 10.39,2013-03-15 15:11:00,
2013-03-15 08:16:00,49.9,48.8,30.03,ESE,118,2.0,2.0,96,0.00,NA,NA,-99.99,VWS Version 10.39,2013-03-15 15:16:00,
2013-03-15 08:21:00,50.0,48.9,30.03,ESE,118,0.0,0.0,96,0.00,NA,NA,-99.99,VWS Version 10.39,2013-03-15 15:21:00,
2013-03-15 08:26:00,50.3,49.2,30.03,ESE,118,0.0,0.0,96,0.00,NA,NA,-99.99,VWS Version 10.39,2013-03-15 15:26:00,
2013-03-15 08:31:00,50.8,50.0,30.03,ESE,118,0.0,1.0,97,0.00,NA,NA,-99.99,VWS Version 10.39,2013-03-15 15:31:00,
2013-03-15 08:36:00,50.9,50.1,30.03,ENE,74,0.0,0.0,97,0.00,NA,NA,-99.99,VWS Version 10.39,2013-03-15 15:36:00,
2013-03-15 08:41:00,51.0,50.2,30.03,South,188,0.0,1.0,97,0.00,NA,NA,-99.99,VWS Version 10.39,2013-03-15 15:41:00,
2013-03-15 08:46:00,51.0,49.9,30.03,SSW,200,3.0,3.0,96,0.00,NA,NA,-99.99,VWS Version 10.39,2013-03-15 15:46:00,
2013-03-15 08:51:00,51.0,49.9,30.03,West,261,1.0,2.0,96,0.00,NA,NA,-99.99,VWS Version 10.39,2013-03-15 15:51:00,
2013-03-15 08:56:00,50.8,49.7,30.03,SSW,208,2.0,2.0,96,0.00,NA,NA,-99.99,VWS Version 10.39,2013-03-15 15:56:00,
2013-03-15 09:06:00,50.4,49.3,30.04,SSW,213,3.0,4.0,96,0.00,NA,NA,-99.99,VWS Version 10.39,2013-03-15 16:06:00,
2013-03-15 09:11:00,50.2,49.1,30.04,South,170,1.0,3.0,96,0.00,NA,NA,-99.99,VWS Version 10.39,2013-03-15 16:11:00,
2013-03-15 09:16:00,50.2,49.1,30.04,SSW,192,1.0,1.0,96,0.00,NA,NA,-99.99,VWS Version 10.39,2013-03-15 16:16:00,
2013-03-15 09:21:00,50.2,49.1,30.04,SSW,213,0.0,1.0,96,0.00,NA,NA,-99.99,VWS Version 10.39,2013-03-15 16:21:00,
2013-03-15 09:26:00,50.4,49.3,30.04,South,180,2.0,4.0,96,0.00,NA,NA,-99.99,VWS Version 10.39,2013-03-15 16:26:00,
2013-03-15 09:31:00,50.8,49.7,30.04,SSW,211,1.0,1.0,96,0.00,NA,NA,-99.99,VWS Version 10.39,2013-03-15 16:31:00,
2013-03-15 09:36:00,50.7,49.6,30.04,SSW,201,4.0,4.0,96,0.00,NA,NA,-99.99,VWS Version 10.39,2013-03-15 16:36:00,
2013-03-15 09:41:00,50.9,49.8,30.04,SSW,198,2.0,2.0,96,0.00,NA,NA,-99.99,VWS Version 10.39,2013-03-15 16:41:00,
2013-03-15 09:46:00,51.2,50.1,30.04,SSW,206,0.0,1.0,96,0.00,NA,NA,-99.99,VWS Version 10.39,2013-03-15 16:46:00,
2013-03-15 09:51:00,51.5,50.7,30.04,SSW,206,0.0,1.0,97,0.00,NA,NA,-99.99,VWS Version 10.39,2013-03-15 16:51:00,
2013-03-15 09:56:00,51.7,50.6,30.04,SSW,206,0.0,0.0,96,0.00,NA,NA,-99.99,VWS Version 10.39,2013-03-15 16:56:00,
2013-03-15 10:06:00,51.8,50.7,30.04,SE,146,3.0,7.0,96,0.00,NA,NA,-99.99,VWS Version 10.39,2013-03-15 17:06:00,
2013-03-15 10:11:00,51.8,50.7,30.04,SSW,199,1.0,1.0,96,0.00,NA,NA,-99.99,VWS Version 10.39,2013-03-15 17:11:00,
2013-03-15 10:16:00,51.9,51.1,30.04,SSW,196,3.0,3.0,97,0.00,NA,NA,-99.99,VWS Version 10.39,2013-03-15 17:16:00,
2013-03-15 10:21:00,52.0,51.2,30.04,South,185,3.0,4.0,97,0.00,NA,NA,-99.99,VWS Version 10.39,2013-03-15 17:21:00,
2013-03-15 10:26:00,51.8,50.7,30.04,South,172,2.0,2.0,96,0.00,NA,NA,-99.99,VWS Version 10.39,2013-03-15 17:26:00,
2013-03-15 10:31:00,51.7,50.6,30.04,SSW,204,2.0,3.0,96,0.00,NA,NA,-99.99,VWS Version 10.39,2013-03-15 17:31:00,
2013-03-15 10:36:00,51.8,50.7,30.04,South,172,3.0,4.0,96,0.00,NA,NA,-99.99,VWS Version 10.39,2013-03-15 17:36:00,
2013-03-15 10:41:00,51.5,50.4,30.04,SSE,167,2.0,3.0,96,0.00,NA,NA,-99.99,VWS Version 10.39,2013-03-15 17:41:00,
2013-03-15 10:46:00,51.7,50.6,30.05,SSW,199,1.0,3.0,96,0.00,NA,NA,-99.99,VWS Version 10.39,2013-03-15 17:46:00,
2013-03-15 10:51:00,51.8,50.7,30.05,SSW,202,0.0,2.0,96,0.00,NA,NA,-99.99,VWS Version 10.39,2013-03-15 17:51:00,
2013-03-15 10:56:00,51.9,50.8,30.05,South,191,4.0,4.0,96,0.00,NA,NA,-99.99,VWS Version 10.39,2013-03-15 17:56:00,
2013-03-15 11:01:00,52.0,50.9,30.05,West,275,0.0,1.0,96,0.00,NA,NA,-99.99,VWS Version 10.39,2013-03-15 18:01:00,
2013-03-15 11:11:00,52.0,50.9,30.06,SW,228,0.0,0.0,96,0.00,NA,NA,-99.99,VWS Version 10.39,2013-03-15 18:11:00,
2013-03-15 11:16:00,52.1,51.0,30.06,West,277,1.0,2.0,96,0.00,NA,NA,-99.99,VWS Version 10.39,2013-03-15 18:16:00,
2013-03-15 11:26:00,52.8,51.7,30.06,NW,311,2.0,2.0,96,0.00,NA,NA,-99.99,VWS Version 10.39,2013-03-15 18:26:00,
2013-03-15 11:31:00,52.8,51.7,30.06,WNW,294,0.0,0.0,96,0.00,NA,NA,-99.99,VWS Version 10.39,2013-03-15 18:31:00,
2013-03-15 11:41:00,53.3,52.2,30.05,WNW,292,0.0,0.0,96,0.00,NA,NA,-99.99,VWS Version 10.39,2013-03-15 18:41:00,
2013-03-15 11:51:00,54.0,52.9,30.05,ESE,115,1.0,2.0,96,0.00,NA,NA,-99.99,VWS Version 10.39,2013-03-15 18:51:00,
2013-03-15 12:11:00,54.9,53.2,30.04,WNW,303,2.0,3.0,94,0.00,NA,NA,-99.99,VWS Version 10.39,2013-03-15 19:11:00,
2013-03-15 12:16:00,55.3,53.3,30.04,West,268,0.0,0.0,93,0.00,NA,NA,-99.99,VWS Version 10.39,2013-03-15 19:16:00,
2013-03-15 12:21:00,55.7,53.4,30.03,SSW,196,0.0,1.0,92,0.00,NA,NA,-99.99,VWS Version 10.39,2013-03-15 19:21:00,
2013-03-15 12:26:00,56.4,53.5,30.03,West,260,2.0,2.0,90,0.00,NA,NA,-99.99,VWS Version 10.39,2013-03-15 19:26:00,
2013-03-15 12:31:00,56.6,53.4,30.03,SW,223,3.0,3.0,89,0.00,NA,NA,-99.99,VWS Version 10.39,2013-03-15 19:31:00,
2013-03-15 12:36:00,56.7,53.5,30.02,SSW,208,3.0,3.0,89,0.00,NA,NA,-99.99,VWS Version 10.39,2013-03-15 19:36:00,
2013-03-15 12:46:00,57.2,53.7,30.02,ENE,61,1.0,2.0,88,0.00,NA,NA,-99.99,VWS Version 10.39,2013-03-15 19:46:00,
2013-03-15 12:51:00,57.8,53.7,30.02,South,187,3.0,4.0,86,0.00,NA,NA,-99.99,VWS Version 10.39,2013-03-15 19:51:00,
2013-03-15 12:56:00,58.1,53.6,30.01,SW,234,4.0,4.0,85,0.00,NA,NA,-99.99,VWS Version 10.39,2013-03-15 19:56:00,
2013-03-15 13:01:00,57.8,53.3,30.02,NNE,13,1.0,2.0,85,0.00,NA,NA,-99.99,VWS Version 10.39,2013-03-15 20:01:00,
2013-03-15 13:06:00,57.7,53.5,30.01,West,281,4.0,5.0,86,0.00,NA,NA,-99.99,VWS Version 10.39,2013-03-15 20:06:00,
2013-03-15 13:11:00,57.5,53.3,30.01,West,281,5.0,5.0,86,0.00,NA,NA,-99.99,VWS Version 10.39,2013-03-15 20:11:00,
2013-03-15 13:16:00,57.2,53.1,30.01,SSW,202,3.0,6.0,86,0.00,NA,NA,-99.99,VWS Version 10.39,2013-03-15 20:16:00,
2013-03-15 13:21:00,56.9,52.8,30.00,WSW,249,1.0,2.0,86,0.00,NA,NA,-99.99,VWS Version 10.39,2013-03-15 20:21:00,
2013-03-15 13:26:00,57.2,53.4,30.00,SW,223,0.0,0.0,87,0.00,NA,NA,-99.99,VWS Version 10.39,2013-03-15 20:26:00,
2013-03-15 13:31:00,57.3,53.2,30.00,SW,227,1.0,2.0,86,0.00,NA,NA,-99.99,VWS Version 10.39,2013-03-15 20:31:00,
2013-03-15 13:36:00,57.8,53.3,30.00,SSE,159,3.0,3.0,85,0.00,NA,NA,-99.99,VWS Version 10.39,2013-03-15 20:36:00,
2013-03-15 13:41:00,58.4,53.9,30.00,SW,233,1.0,2.0,85,0.00,NA,NA,-99.99,VWS Version 10.39,2013-03-15 20:41:00,
2013-03-15 13:46:00,59.2,54.0,29.99,West,279,1.0,2.0,83,0.00,NA,NA,-99.99,VWS Version 10.39,2013-03-15 20:46:00,
2013-03-15 13:51:00,59.0,53.5,29.99,SW,220,1.0,2.0,82,0.00,NA,NA,-99.99,VWS Version 10.39,2013-03-15 20:51:00,
2013-03-15 13:56:00,59.3,53.8,29.99,SW,224,1.0,4.0,82,0.00,NA,NA,-99.99,VWS Version 10.39,2013-03-15 20:56:00,
2013-03-15 14:06:00,58.9,54.1,29.98,SSW,204,4.0,4.0,84,0.00,NA,NA,-99.99,VWS Version 10.39,2013-03-15 21:06:00,
2013-03-15 14:11:00,59.2,54.0,29.98,SSW,207,3.0,3.0,83,0.00,NA,NA,-99.99,VWS Version 10.39,2013-03-15 21:11:00,
2013-03-15 14:16:00,59.5,54.7,29.98,WSW,237,1.0,4.0,84,0.00,NA,NA,-99.99,VWS Version 10.39,2013-03-15 21:16:00,
2013-03-15 14:21:00,59.2,53.7,29.98,SE,139,1.0,3.0,82,0.00,NA,NA,-99.99,VWS Version 10.39,2013-03-15 21:21:00,
2013-03-15 14:26:00,59.0,53.8,29.98,South,173,1.0,3.0,83,0.00,NA,NA,-99.99,VWS Version 10.39,2013-03-15 21:26:00,
2013-03-15 14:31:00,58.9,53.8,29.97,South,189,3.0,4.0,83,0.00,NA,NA,-99.99,VWS Version 10.39,2013-03-15 21:31:00,
2013-03-15 14:36:00,58.4,53.6,29.98,WNW,300,3.0,3.0,84,0.00,NA,NA,-99.99,VWS Version 10.39,2013-03-15 21:36:00,
2013-03-15 14:46:00,57.5,53.3,29.98,West,271,1.0,5.0,86,0.00,NA,NA,-99.99,VWS Version 10.39,2013-03-15 21:46:00,
2013-03-15 14:51:00,57.3,53.2,29.98,WSW,250,0.0,2.0,86,0.00,NA,NA,-99.99,VWS Version 10.39,2013-03-15 21:51:00,
2013-03-15 14:56:00,57.3,53.2,29.98,SW,221,2.0,2.0,86,0.00,NA,NA,-99.99,VWS Version 10.39,2013-03-15 21:56:00,
2013-03-15 15:06:00,57.3,53.2,29.98,SSW,207,4.0,4.0,86,0.00,NA,NA,-99.99,VWS Version 10.39,2013-03-15 22:06:00,
2013-03-15 15:11:00,57.2,53.1,29.98,SSW,197,0.0,1.0,86,0.00,NA,NA,-99.99,VWS Version 10.39,2013-03-15 22:11:00,
2013-03-15 15:16:00,57.2,53.1,29.97,West,281,1.0,2.0,86,0.00,NA,NA,-99.99,VWS Version 10.39,2013-03-15 22:16:00,
2013-03-15 15:21:00,56.9,52.8,29.97,SSW,203,0.0,3.0,86,0.00,NA,NA,-99.99,VWS Version 10.39,2013-03-15 22:21:00,
2013-03-15 15:26:00,56.8,53.0,29.98,South,173,2.0,2.0,87,0.00,NA,NA,-99.99,VWS Version 10.39,2013-03-15 22:26:00,
2013-03-15 15:31:00,56.7,52.9,29.98,WSW,257,4.0,5.0,87,0.00,NA,NA,-99.99,VWS Version 10.39,2013-03-15 22:31:00,
2013-03-15 15:36:00,56.7,53.2,29.98,SSW,200,4.0,4.0,88,0.00,NA,NA,-99.99,VWS Version 10.39,2013-03-15 22:36:00,
2013-03-15 15:41:00,56.8,53.0,29.97,South,175,2.0,2.0,87,0.00,NA,NA,-99.99,VWS Version 10.39,2013-03-15 22:41:00,
2013-03-15 15:46:00,56.7,52.9,29.97,NW,312,0.0,3.0,87,0.00,NA,NA,-99.99,VWS Version 10.39,2013-03-15 22:46:00,
2013-03-15 15:51:00,56.8,53.0,29.97,WNW,288,2.0,3.0,87,0.00,NA,NA,-99.99,VWS Version 10.39,2013-03-15 22:51:00,
2013-03-15 15:56:00,56.8,53.0,29.97,SW,219,1.0,2.0,87,0.00,NA,NA,-99.99,VWS Version 10.39,2013-03-15 22:56:00,
2013-03-15 16:06:00,56.6,52.8,29.97,West,266,2.0,2.0,87,0.00,NA,NA,-99.99,VWS Version 10.39,2013-03-15 23:06:00,
2013-03-15 16:11:00,56.4,52.6,29.97,West,269,1.0,2.0,87,0.00,NA,NA,-99.99,VWS Version 10.39,2013-03-15 23:11:00,
2013-03-15 16:16:00,56.3,52.8,29.97,WSW,248,2.0,4.0,88,0.00,NA,NA,-99.99,VWS Version 10.39,2013-03-15 23:16:00,
2013-03-15 16:21:00,56.4,52.9,29.97,South,189,2.0,2.0,88,0.00,NA,NA,-99.99,VWS Version 10.39,2013-03-15 23:21:00,
2013-03-15 16:26:00,56.2,52.4,29.97,South,188,0.0,1.0,87,0.00,NA,NA,-99.99,VWS Version 10.39,2013-03-15 23:26:00,
2013-03-15 16:31:00,55.8,52.0,29.97,WNW,300,2.0,3.0,87,0.00,NA,NA,-99.99,VWS Version 10.39,2013-03-15 23:31:00,
2013-03-15 16:36:00,55.2,51.7,29.97,West,267,4.0,4.0,88,0.00,NA,NA,-99.99,VWS Version 10.39,2013-03-15 23:36:00,
2013-03-15 16:46:00,54.9,52.0,29.97,WSW,246,1.0,3.0,90,0.00,NA,NA,-99.99,VWS Version 10.39,2013-03-15 23:46:00,
2013-03-15 16:56:00,54.8,51.9,29.97,SSE,148,1.0,2.0,90,0.00,NA,NA,-99.99,VWS Version 10.39,2013-03-15 23:56:00,
2013-03-15 17:01:00,54.4,51.5,29.97,SW,223,3.0,3.0,90,0.00,NA,NA,-99.99,VWS Version 10.39,2013-03-16 00:01:00,
2013-03-15 17:06:00,54.4,51.8,29.97,WNW,292,0.0,1.0,91,0.00,NA,NA,-99.99,VWS Version 10.39,2013-03-16 00:06:00,
2013-03-15 17:11:00,54.4,51.8,29.97,West,275,3.0,5.0,91,0.00,NA,NA,-99.99,VWS Version 10.39,2013-03-16 00:11:00,
2013-03-15 17:16:00,54.3,51.7,29.97,WSW,244,0.0,1.0,91,0.00,NA,NA,-99.99,VWS Version 10.39,2013-03-16 00:16:00,
2013-03-15 17:21:00,54.2,51.6,29.97,West,274,3.0,3.0,91,0.00,NA,NA,-99.99,VWS Version 10.39,2013-03-16 00:21:00,
2013-03-15 17:26:00,54.0,51.4,29.97,West,269,3.0,4.0,91,0.00,NA,NA,-99.99,VWS Version 10.39,2013-03-16 00:26:00,
2013-03-15 17:41:00,53.5,50.9,29.97,NW,305,3.0,3.0,91,0.00,NA,NA,-99.99,VWS Version 10.39,2013-03-16 00:41:00,
2013-03-15 17:56:00,53.2,50.9,29.97,South,190,2.0,2.0,92,0.00,NA,NA,-99.99,VWS Version 10.39,2013-03-16 00:56:00,
2013-03-15 18:11:00,52.7,50.7,29.97,NW,317,0.0,0.0,93,0.00,NA,NA,-99.99,VWS Version 10.39,2013-03-16 01:11:00,
2013-03-15 18:16:00,52.9,50.9,29.97,ENE,67,0.0,0.0,93,0.00,NA,NA,-99.99,VWS Version 10.39,2013-03-16 01:16:00,
2013-03-15 18:21:00,52.9,50.9,29.96,SE,132,0.0,2.0,93,0.00,NA,NA,-99.99,VWS Version 10.39,2013-03-16 01:21:00,
2013-03-15 18:26:00,52.9,50.9,29.96,SE,131,0.0,1.0,93,0.00,NA,NA,-99.99,VWS Version 10.39,2013-03-16 01:26:00,
2013-03-15 18:36:00,52.9,50.9,29.97,SSE,154,0.0,0.0,93,0.00,NA,NA,-99.99,VWS Version 10.39,2013-03-16 01:36:00,
2013-03-15 18:41:00,53.0,51.0,29.96,SSW,193,0.0,1.0,93,0.00,NA,NA,-99.99,VWS Version 10.39,2013-03-16 01:41:00,
2013-03-15 18:46:00,53.0,51.0,29.96,SW,214,2.0,2.0,93,0.00,NA,NA,-99.99,VWS Version 10.39,2013-03-16 01:46:00,
2013-03-15 18:51:00,52.9,50.6,29.96,SW,214,0.0,1.0,92,0.00,NA,NA,-99.99,VWS Version 10.39,2013-03-16 01:51:00,
2013-03-15 18:56:00,52.7,50.5,29.96,SSW,196,1.0,1.0,92,0.00,NA,NA,-99.99,VWS Version 10.39,2013-03-16 01:56:00,
2013-03-15 19:01:00,52.6,50.3,29.96,WSW,238,0.0,0.0,92,0.00,NA,NA,-99.99,VWS Version 10.39,2013-03-16 02:01:00,
2013-03-15 19:06:00,52.6,50.3,29.96,WSW,257,1.0,3.0,92,0.00,NA,NA,-99.99,VWS Version 10.39,2013-03-16 02:06:00,
2013-03-15 19:11:00,52.4,50.2,29.96,WSW,246,1.0,2.0,92,0.00,NA,NA,-99.99,VWS Version 10.39,2013-03-16 02:11:00,
2013-03-15 19:21:00,52.3,50.3,29.96,SW,221,0.0,1.0,93,0.00,NA,NA,-99.99,VWS Version 10.39,2013-03-16 02:21:00,
2013-03-15 19:26:00,52.2,50.2,29.97,SW,221,1.0,1.0,93,0.00,NA,NA,-99.99,VWS Version 10.39,2013-03-16 02:26:00,
2013-03-15 20:06:00,51.7,50.0,29.97,SSE,157,3.0,3.0,94,0.00,NA,NA,-99.99,VWS Version 10.39,2013-03-16 03:06:00,
2013-03-15 20:11:00,51.7,50.0,29.98,WSW,244,1.0,2.0,94,0.00,NA,NA,-99.99,VWS Version 10.39,2013-03-16 03:11:00,
2013-03-15 20:16:00,51.8,50.1,29.98,WSW,249,0.0,2.0,94,0.00,NA,NA,-99.99,VWS Version 10.39,2013-03-16 03:16:00,
2013-03-15 20:21:00,51.7,50.0,29.99,WSW,254,2.0,3.0,94,0.00,NA,NA,-99.99,VWS Version 10.39,2013-03-16 03:21:00,
2013-03-15 20:26:00,51.8,50.1,29.99,SW,233,0.0,1.0,94,0.00,NA,NA,-99.99,VWS Version 10.39,2013-03-16 03:26:00,
2013-03-15 20:31:00,51.8,50.1,29.99,SW,223,2.0,2.0,94,0.00,NA,NA,-99.99,VWS Version 10.39,2013-03-16 03:31:00,
2013-03-15 20:41:00,51.5,49.8,29.99,West,267,0.0,2.0,94,0.00,NA,NA,-99.99,VWS Version 10.39,2013-03-16 03:41:00,
2013-03-15 20:46:00,51.4,49.7,29.99,WNW,294,2.0,2.0,94,0.00,NA,NA,-99.99,VWS Version 10.39,2013-03-16 03:46:00,
2013-03-15 20:51:00,51.2,49.5,29.99,WNW,294,0.0,1.0,94,0.00,NA,NA,-99.99,VWS Version 10.39,2013-03-16 03:51:00,
2013-03-15 20:56:00,51.2,49.5,29.99,WNW,294,0.0,0.0,94,0.00,NA,NA,-99.99,VWS Version 10.39,2013-03-16 03:56:00,
2013-03-15 21:06:00,51.3,49.6,29.99,SSE,157,1.0,2.0,94,0.00,NA,NA,-99.99,VWS Version 10.39,2013-03-16 04:06:00,
2013-03-15 21:11:00,51.1,49.4,29.99,SE,132,0.0,1.0,94,0.00,NA,NA,-99.99,VWS Version 10.39,2013-03-16 04:11:00,
2013-03-15 21:16:00,51.0,49.3,30.00,East,98,0.0,0.0,94,0.00,NA,NA,-99.99,VWS Version 10.39,2013-03-16 04:16:00,
2013-03-15 21:21:00,51.0,49.3,30.00,East,98,0.0,0.0,94,0.00,NA,NA,-99.99,VWS Version 10.39,2013-03-16 04:21:00,
2013-03-15 21:31:00,51.0,49.6,30.00,ESE,107,5.0,5.0,95,0.00,NA,NA,-99.99,VWS Version 10.39,2013-03-16 04:31:00,
2013-03-15 21:36:00,50.9,49.2,29.99,SSE,155,0.0,0.0,94,0.00,NA,NA,-99.99,VWS Version 10.39,2013-03-16 04:36:00,
2013-03-15 21:41:00,50.9,49.5,30.00,SSE,155,1.0,1.0,95,0.00,NA,NA,-99.99,VWS Version 10.39,2013-03-16 04:41:00,
2013-03-15 21:46:00,51.0,49.6,30.00,SSE,155,0.0,0.0,95,0.00,NA,NA,-99.99,VWS Version 10.39,2013-03-16 04:46:00,
2013-03-15 21:51:00,51.0,49.6,30.00,SSE,155,0.0,0.0,95,0.00,NA,NA,-99.99,VWS Version 10.39,2013-03-16 04:51:00,
2013-03-15 21:56:00,51.0,49.6,30.00,SSE,155,0.0,0.0,95,0.00,NA,NA,-99.99,VWS Version 10.39,2013-03-16 04:56:00,
2013-03-15 22:06:00,51.0,49.6,30.00,SSE,155,0.0,0.0,95,0.00,NA,NA,-99.99,VWS Version 10.39,2013-03-16 05:06:00,
2013-03-15 22:11:00,51.1,49.7,29.99,SSE,155,0.0,1.0,95,0.00,NA,NA,-99.99,VWS Version 10.39,2013-03-16 05:11:00,
2013-03-15 22:16:00,51.1,49.7,29.99,SSE,165,1.0,1.0,95,0.00,NA,NA,-99.99,VWS Version 10.39,2013-03-16 05:16:00,
2013-03-15 22:26:00,51.1,49.7,29.99,South,171,1.0,1.0,95,0.00,NA,NA,-99.99,VWS Version 10.39,2013-03-16 05:26:00,
2013-03-15 22:31:00,51.0,49.6,30.00,SSE,154,1.0,1.0,95,0.00,NA,NA,-99.99,VWS Version 10.39,2013-03-16 05:31:00,
2013-03-15 22:51:00,51.1,49.7,29.99,South,179,4.0,4.0,95,0.00,NA,NA,-99.99,VWS Version 10.39,2013-03-16 05:51:00,
2013-03-15 22:56:00,51.1,49.7,29.99,SSE,157,3.0,4.0,95,0.00,NA,NA,-99.99,VWS Version 10.39,2013-03-16 05:56:00,
2013-03-15 23:01:00,51.0,49.6,29.99,SSE,147,3.0,5.0,95,0.00,NA,NA,-99.99,VWS Version 10.39,2013-03-16 06:01:00,
2013-03-15 23:06:00,51.0,49.6,29.98,SSE,157,4.0,4.0,95,0.00,NA,NA,-99.99,VWS Version 10.39,2013-03-16 06:06:00,
2013-03-15 23:11:00,50.9,49.5,29.98,SE,137,3.0,5.0,95,0.00,NA,NA,-99.99,VWS Version 10.39,2013-03-16 06:11:00,
2013-03-15 23:16:00,50.7,49.3,29.98,SSE,165,6.0,7.0,95,0.00,NA,NA,-99.99,VWS Version 10.39,2013-03-16 06:16:00,
2013-03-15 23:21:00,50.5,49.1,29.98,SSE,155,3.0,5.0,95,0.00,NA,NA,-99.99,VWS Version 10.39,2013-03-16 06:21:00,
2013-03-15 23:26:00,50.3,48.9,29.99,SSE,156,3.0,5.0,95,0.00,NA,NA,-99.99,VWS Version 10.39,2013-03-16 06:26:00,
2013-03-15 23:31:00,50.3,48.9,29.98,SE,146,1.0,1.0,95,0.00,NA,NA,-99.99,VWS Version 10.39,2013-03-16 06:31:00,
2013-03-15 23:36:00,50.3,48.9,29.98,ESE,114,2.0,4.0,95,0.00,NA,NA,-99.99,VWS Version 10.39,2013-03-16 06:36:00,
2013-03-15 23:46:00,50.4,49.0,29.98,SE,131,4.0,5.0,95,0.00,NA,NA,-99.99,VWS Version 10.39,2013-03-16 06:46:00,
2013-03-15 23:51:00,50.4,49.0,29.98,SE,145,5.0,6.0,95,0.00,NA,NA,-99.99,VWS Version 10.39,2013-03-16 06:51:00,
2013-03-15 23:56:00,50.4,49.0,29.97,SSE,150,3.0,5.0,95,0.00,NA,NA,-99.99,VWS Version 10.39,2013-03-16 06:56:00,